sensor_id;sensor_type;location;lat;lon;timestamp;P1;durP1;ratioP1;P2;durP2;ratioP2
32333;SDS011;18810;53.040;8.850;2024-03-02T00:00:21;0.30;;;0.30;;
32333;SDS011;18810;53.040;8.850;2024-03-02T00:02:47;0.20;;;0.20;;
32333;SDS011;18810;53.040;8.850;2024-03-02T00:05:14;0.22;;;0.22;;
32333;SDS011;18810;53.040;8.850;2024-03-02T00:07:42;0.30;;;0.30;;
32333;SDS011;18810;53.040;8.850;2024-03-02T00:10:09;0.20;;;0.20;;
32333;SDS011;18810;53.040;8.850;2024-03-02T00:12:40;0.20;;;0.20;;
32333;SDS011;18810;53.040;8.850;2024-03-02T00:15:07;0.30;;;0.30;;
32333;SDS011;18810;53.040;8.850;2024-03-02T00:17:56;0.30;;;0.30;;
32333;SDS011;18810;53.040;8.850;2024-03-02T00:20:24;0.20;;;0.20;;
32333;SDS011;18810;53.040;8.850;2024-03-02T00:22:58;0.30;;;0.30;;
32333;SDS011;18810;53.040;8.850;2024-03-02T00:25:27;0.30;;;0.30;;
32333;SDS011;18810;53.040;8.850;2024-03-02T00:27:53;0.40;;;0.40;;
32333;SDS011;18810;53.040;8.850;2024-03-02T00:33:23;0.20;;;0.20;;
32333;SDS011;18810;53.040;8.850;2024-03-02T00:35:51;0.30;;;0.30;;
32333;SDS011;18810;53.040;8.850;2024-03-02T00:38:18;0.30;;;0.30;;
32333;SDS011;18810;53.040;8.850;2024-03-02T00:40:44;0.30;;;0.30;;
32333;SDS011;18810;53.040;8.850;2024-03-02T00:46:02;0.28;;;0.28;;
32333;SDS011;18810;53.040;8.850;2024-03-02T00:48:27;0.30;;;0.30;;
32333;SDS011;18810;53.040;8.850;2024-03-02T00:50:56;0.30;;;0.30;;
32333;SDS011;18810;53.040;8.850;2024-03-02T00:53:23;0.20;;;0.20;;
32333;SDS011;18810;53.040;8.850;2024-03-02T00:55:51;0.30;;;0.30;;
32333;SDS011;18810;53.040;8.850;2024-03-02T00:58:17;0.20;;;0.20;;
32333;SDS011;18810;53.040;8.850;2024-03-02T01:00:43;0.30;;;0.30;;
32333;SDS011;18810;53.040;8.850;2024-03-02T01:03:09;0.22;;;0.22;;
32333;SDS011;18810;53.040;8.850;2024-03-02T01:05:35;0.20;;;0.20;;
32333;SDS011;18810;53.040;8.850;2024-03-02T01:08:01;0.30;;;0.30;;
32333;SDS011;18810;53.040;8.850;2024-03-02T01:10:27;0.30;;;0.30;;
32333;SDS011;18810;53.040;8.850;2024-03-02T01:12:53;0.30;;;0.30;;
32333;SDS011;18810;53.040;8.850;2024-03-02T01:15:19;0.30;;;0.30;;
32333;SDS011;18810;53.040;8.850;2024-03-02T01:17:45;0.20;;;0.20;;
32333;SDS011;18810;53.040;8.850;2024-03-02T01:20:12;0.20;;;0.20;;
32333;SDS011;18810;53.040;8.850;2024-03-02T01:22:38;0.30;;;0.30;;
32333;SDS011;18810;53.040;8.850;2024-03-02T01:25:04;0.30;;;0.30;;
32333;SDS011;18810;53.040;8.850;2024-03-02T01:27:30;0.28;;;0.28;;
32333;SDS011;18810;53.040;8.850;2024-03-02T01:29:56;0.22;;;0.22;;
32333;SDS011;18810;53.040;8.850;2024-03-02T01:32:22;0.30;;;0.30;;
32333;SDS011;18810;53.040;8.850;2024-03-02T01:34:48;0.20;;;0.20;;
32333;SDS011;18810;53.040;8.850;2024-03-02T01:37:14;0.30;;;0.30;;
32333;SDS011;18810;53.040;8.850;2024-03-02T01:39:40;0.30;;;0.30;;
32333;SDS011;18810;53.040;8.850;2024-03-02T01:42:06;0.20;;;0.20;;
32333;SDS011;18810;53.040;8.850;2024-03-02T01:44:32;0.30;;;0.30;;
32333;SDS011;18810;53.040;8.850;2024-03-02T01:46:58;0.20;;;0.20;;
32333;SDS011;18810;53.040;8.850;2024-03-02T01:49:24;0.30;;;0.30;;
32333;SDS011;18810;53.040;8.850;2024-03-02T01:51:50;0.30;;;0.30;;
32333;SDS011;18810;53.040;8.850;2024-03-02T01:54:16;0.30;;;0.30;;
32333;SDS011;18810;53.040;8.850;2024-03-02T01:56:42;0.28;;;0.28;;
32333;SDS011;18810;53.040;8.850;2024-03-02T01:59:08;0.30;;;0.30;;
32333;SDS011;18810;53.040;8.850;2024-03-02T02:01:34;0.30;;;0.30;;
32333;SDS011;18810;53.040;8.850;2024-03-02T02:04:00;0.30;;;0.30;;
32333;SDS011;18810;53.040;8.850;2024-03-02T02:06:26;0.20;;;0.20;;
32333;SDS011;18810;53.040;8.850;2024-03-02T02:08:52;0.30;;;0.30;;
32333;SDS011;18810;53.040;8.850;2024-03-02T02:11:18;0.25;;;0.25;;
32333;SDS011;18810;53.040;8.850;2024-03-02T02:13:44;0.20;;;0.20;;
32333;SDS011;18810;53.040;8.850;2024-03-02T02:16:10;0.30;;;0.30;;
32333;SDS011;18810;53.040;8.850;2024-03-02T02:18:36;0.30;;;0.30;;
32333;SDS011;18810;53.040;8.850;2024-03-02T02:21:02;0.30;;;0.30;;
32333;SDS011;18810;53.040;8.850;2024-03-02T02:23:29;0.30;;;0.30;;
32333;SDS011;18810;53.040;8.850;2024-03-02T02:25:55;0.30;;;0.30;;
32333;SDS011;18810;53.040;8.850;2024-03-02T02:28:21;0.30;;;0.30;;
32333;SDS011;18810;53.040;8.850;2024-03-02T02:30:46;0.30;;;0.30;;
32333;SDS011;18810;53.040;8.850;2024-03-02T02:33:13;0.30;;;0.30;;
32333;SDS011;18810;53.040;8.850;2024-03-02T02:35:39;0.30;;;0.30;;
32333;SDS011;18810;53.040;8.850;2024-03-02T02:38:05;0.30;;;0.30;;
32333;SDS011;18810;53.040;8.850;2024-03-02T02:40:31;0.30;;;0.30;;
32333;SDS011;18810;53.040;8.850;2024-03-02T02:42:57;0.30;;;0.30;;
32333;SDS011;18810;53.040;8.850;2024-03-02T02:45:24;0.30;;;0.30;;
32333;SDS011;18810;53.040;8.850;2024-03-02T02:47:50;0.30;;;0.30;;
32333;SDS011;18810;53.040;8.850;2024-03-02T02:50:16;0.30;;;0.30;;
32333;SDS011;18810;53.040;8.850;2024-03-02T02:52:42;0.20;;;0.20;;
32333;SDS011;18810;53.040;8.850;2024-03-02T02:55:09;0.20;;;0.20;;
32333;SDS011;18810;53.040;8.850;2024-03-02T02:57:36;0.20;;;0.20;;
32333;SDS011;18810;53.040;8.850;2024-03-02T03:00:11;0.30;;;0.30;;
32333;SDS011;18810;53.040;8.850;2024-03-02T03:02:41;0.30;;;0.30;;
32333;SDS011;18810;53.040;8.850;2024-03-02T03:05:08;0.30;;;0.30;;
32333;SDS011;18810;53.040;8.850;2024-03-02T03:07:35;0.30;;;0.30;;
32333;SDS011;18810;53.040;8.850;2024-03-02T03:10:02;0.30;;;0.30;;
32333;SDS011;18810;53.040;8.850;2024-03-02T03:12:29;0.30;;;0.30;;
32333;SDS011;18810;53.040;8.850;2024-03-02T03:14:56;0.30;;;0.30;;
32333;SDS011;18810;53.040;8.850;2024-03-02T03:17:22;0.30;;;0.30;;
32333;SDS011;18810;53.040;8.850;2024-03-02T03:19:48;0.30;;;0.30;;
32333;SDS011;18810;53.040;8.850;2024-03-02T03:22:14;0.30;;;0.30;;
32333;SDS011;18810;53.040;8.850;2024-03-02T03:24:40;0.30;;;0.30;;
32333;SDS011;18810;53.040;8.850;2024-03-02T03:27:06;0.30;;;0.30;;
32333;SDS011;18810;53.040;8.850;2024-03-02T03:29:32;0.30;;;0.30;;
32333;SDS011;18810;53.040;8.850;2024-03-02T03:31:58;0.30;;;0.30;;
32333;SDS011;18810;53.040;8.850;2024-03-02T03:34:24;0.30;;;0.30;;
32333;SDS011;18810;53.040;8.850;2024-03-02T03:36:50;0.30;;;0.30;;
32333;SDS011;18810;53.040;8.850;2024-03-02T03:39:16;0.30;;;0.30;;
32333;SDS011;18810;53.040;8.850;2024-03-02T03:41:42;0.30;;;0.30;;
32333;SDS011;18810;53.040;8.850;2024-03-02T03:44:08;0.30;;;0.30;;
32333;SDS011;18810;53.040;8.850;2024-03-02T03:46:34;0.30;;;0.30;;
32333;SDS011;18810;53.040;8.850;2024-03-02T03:49:00;0.30;;;0.30;;
32333;SDS011;18810;53.040;8.850;2024-03-02T03:51:26;0.30;;;0.30;;
32333;SDS011;18810;53.040;8.850;2024-03-02T03:53:52;0.30;;;0.30;;
32333;SDS011;18810;53.040;8.850;2024-03-02T03:56:18;0.40;;;0.40;;
32333;SDS011;18810;53.040;8.850;2024-03-02T03:58:44;0.30;;;0.30;;
32333;SDS011;18810;53.040;8.850;2024-03-02T04:01:11;0.30;;;0.30;;
32333;SDS011;18810;53.040;8.850;2024-03-02T04:03:37;0.30;;;0.30;;
32333;SDS011;18810;53.040;8.850;2024-03-02T04:06:04;0.30;;;0.30;;
32333;SDS011;18810;53.040;8.850;2024-03-02T04:08:29;0.30;;;0.30;;
32333;SDS011;18810;53.040;8.850;2024-03-02T04:10:55;0.30;;;0.30;;
32333;SDS011;18810;53.040;8.850;2024-03-02T04:13:21;0.30;;;0.30;;
32333;SDS011;18810;53.040;8.850;2024-03-02T04:15:47;0.30;;;0.30;;
32333;SDS011;18810;53.040;8.850;2024-03-02T04:18:13;0.30;;;0.30;;
32333;SDS011;18810;53.040;8.850;2024-03-02T04:20:39;0.25;;;0.25;;
32333;SDS011;18810;53.040;8.850;2024-03-02T04:23:05;0.30;;;0.30;;
32333;SDS011;18810;53.040;8.850;2024-03-02T04:25:31;0.30;;;0.30;;
32333;SDS011;18810;53.040;8.850;2024-03-02T04:27:57;0.30;;;0.30;;
32333;SDS011;18810;53.040;8.850;2024-03-02T04:30:23;0.20;;;0.20;;
32333;SDS011;18810;53.040;8.850;2024-03-02T04:32:50;0.30;;;0.30;;
32333;SDS011;18810;53.040;8.850;2024-03-02T04:35:16;0.30;;;0.30;;
32333;SDS011;18810;53.040;8.850;2024-03-02T04:37:41;0.30;;;0.30;;
32333;SDS011;18810;53.040;8.850;2024-03-02T04:40:08;0.30;;;0.30;;
32333;SDS011;18810;53.040;8.850;2024-03-02T04:42:34;0.30;;;0.30;;
32333;SDS011;18810;53.040;8.850;2024-03-02T04:45:00;0.20;;;0.20;;
32333;SDS011;18810;53.040;8.850;2024-03-02T04:47:26;0.30;;;0.30;;
32333;SDS011;18810;53.040;8.850;2024-03-02T04:49:52;0.30;;;0.30;;
32333;SDS011;18810;53.040;8.850;2024-03-02T04:52:18;0.30;;;0.30;;
32333;SDS011;18810;53.040;8.850;2024-03-02T04:54:44;0.30;;;0.30;;
32333;SDS011;18810;53.040;8.850;2024-03-02T04:57:28;0.30;;;0.30;;
32333;SDS011;18810;53.040;8.850;2024-03-02T04:59:53;0.20;;;0.20;;
32333;SDS011;18810;53.040;8.850;2024-03-02T05:02:20;0.30;;;0.30;;
32333;SDS011;18810;53.040;8.850;2024-03-02T05:04:46;0.20;;;0.20;;
32333;SDS011;18810;53.040;8.850;2024-03-02T05:07:13;0.30;;;0.30;;
32333;SDS011;18810;53.040;8.850;2024-03-02T05:09:39;0.30;;;0.30;;
32333;SDS011;18810;53.040;8.850;2024-03-02T05:12:05;0.30;;;0.30;;
32333;SDS011;18810;53.040;8.850;2024-03-02T05:14:51;0.30;;;0.30;;
32333;SDS011;18810;53.040;8.850;2024-03-02T05:17:17;0.30;;;0.30;;
32333;SDS011;18810;53.040;8.850;2024-03-02T05:19:42;0.30;;;0.30;;
32333;SDS011;18810;53.040;8.850;2024-03-02T05:22:08;0.30;;;0.30;;
32333;SDS011;18810;53.040;8.850;2024-03-02T05:24:34;0.30;;;0.30;;
32333;SDS011;18810;53.040;8.850;2024-03-02T05:27:00;0.30;;;0.30;;
32333;SDS011;18810;53.040;8.850;2024-03-02T05:29:26;0.30;;;0.30;;
32333;SDS011;18810;53.040;8.850;2024-03-02T05:31:52;0.30;;;0.30;;
32333;SDS011;18810;53.040;8.850;2024-03-02T05:34:18;0.30;;;0.30;;
32333;SDS011;18810;53.040;8.850;2024-03-02T05:36:44;0.30;;;0.30;;
32333;SDS011;18810;53.040;8.850;2024-03-02T05:39:09;0.30;;;0.30;;
32333;SDS011;18810;53.040;8.850;2024-03-02T05:41:35;0.30;;;0.30;;
32333;SDS011;18810;53.040;8.850;2024-03-02T05:44:03;0.30;;;0.30;;
32333;SDS011;18810;53.040;8.850;2024-03-02T05:46:29;0.30;;;0.30;;
32333;SDS011;18810;53.040;8.850;2024-03-02T05:48:55;0.30;;;0.30;;
32333;SDS011;18810;53.040;8.850;2024-03-02T05:51:21;0.30;;;0.30;;
32333;SDS011;18810;53.040;8.850;2024-03-02T05:53:47;0.20;;;0.20;;
32333;SDS011;18810;53.040;8.850;2024-03-02T05:56:13;0.30;;;0.30;;
32333;SDS011;18810;53.040;8.850;2024-03-02T05:58:40;0.30;;;0.30;;
32333;SDS011;18810;53.040;8.850;2024-03-02T06:01:15;0.30;;;0.30;;
32333;SDS011;18810;53.040;8.850;2024-03-02T06:03:43;0.30;;;0.30;;
32333;SDS011;18810;53.040;8.850;2024-03-02T06:06:09;0.30;;;0.30;;
32333;SDS011;18810;53.040;8.850;2024-03-02T06:08:35;0.30;;;0.30;;
32333;SDS011;18810;53.040;8.850;2024-03-02T06:11:00;0.30;;;0.30;;
32333;SDS011;18810;53.040;8.850;2024-03-02T06:13:26;0.30;;;0.30;;
32333;SDS011;18810;53.040;8.850;2024-03-02T06:15:52;0.30;;;0.30;;
32333;SDS011;18810;53.040;8.850;2024-03-02T06:18:18;0.30;;;0.30;;
32333;SDS011;18810;53.040;8.850;2024-03-02T06:20:44;0.30;;;0.30;;
32333;SDS011;18810;53.040;8.850;2024-03-02T06:23:09;0.30;;;0.30;;
32333;SDS011;18810;53.040;8.850;2024-03-02T06:25:35;0.30;;;0.30;;
32333;SDS011;18810;53.040;8.850;2024-03-02T06:28:01;0.30;;;0.30;;
32333;SDS011;18810;53.040;8.850;2024-03-02T06:30:29;0.30;;;0.30;;
32333;SDS011;18810;53.040;8.850;2024-03-02T06:32:55;0.30;;;0.30;;
32333;SDS011;18810;53.040;8.850;2024-03-02T06:35:21;0.22;;;0.22;;
32333;SDS011;18810;53.040;8.850;2024-03-02T06:37:47;0.30;;;0.30;;
32333;SDS011;18810;53.040;8.850;2024-03-02T06:40:12;0.30;;;0.30;;
32333;SDS011;18810;53.040;8.850;2024-03-02T06:42:38;0.30;;;0.30;;
32333;SDS011;18810;53.040;8.850;2024-03-02T06:45:04;0.30;;;0.30;;
32333;SDS011;18810;53.040;8.850;2024-03-02T06:47:30;0.20;;;0.20;;
32333;SDS011;18810;53.040;8.850;2024-03-02T06:49:56;0.30;;;0.30;;
32333;SDS011;18810;53.040;8.850;2024-03-02T06:52:23;0.30;;;0.30;;
32333;SDS011;18810;53.040;8.850;2024-03-02T06:54:49;0.30;;;0.30;;
32333;SDS011;18810;53.040;8.850;2024-03-02T06:57:15;0.30;;;0.30;;
32333;SDS011;18810;53.040;8.850;2024-03-02T06:59:42;0.30;;;0.30;;
32333;SDS011;18810;53.040;8.850;2024-03-02T07:02:07;0.30;;;0.30;;
32333;SDS011;18810;53.040;8.850;2024-03-02T07:04:34;0.20;;;0.20;;
32333;SDS011;18810;53.040;8.850;2024-03-02T07:06:59;0.30;;;0.30;;
32333;SDS011;18810;53.040;8.850;2024-03-02T07:09:28;0.30;;;0.30;;
32333;SDS011;18810;53.040;8.850;2024-03-02T07:11:54;0.20;;;0.20;;
32333;SDS011;18810;53.040;8.850;2024-03-02T07:14:20;0.25;;;0.25;;
32333;SDS011;18810;53.040;8.850;2024-03-02T07:16:47;0.30;;;0.30;;
32333;SDS011;18810;53.040;8.850;2024-03-02T07:19:13;0.25;;;0.25;;
32333;SDS011;18810;53.040;8.850;2024-03-02T07:21:39;0.30;;;0.30;;
32333;SDS011;18810;53.040;8.850;2024-03-02T07:24:05;0.20;;;0.20;;
32333;SDS011;18810;53.040;8.850;2024-03-02T07:26:31;0.30;;;0.30;;
32333;SDS011;18810;53.040;8.850;2024-03-02T07:28:57;0.20;;;0.20;;
32333;SDS011;18810;53.040;8.850;2024-03-02T07:31:23;0.28;;;0.28;;
32333;SDS011;18810;53.040;8.850;2024-03-02T07:33:49;0.30;;;0.30;;
32333;SDS011;18810;53.040;8.850;2024-03-02T07:36:16;0.30;;;0.30;;
32333;SDS011;18810;53.040;8.850;2024-03-02T07:38:42;0.30;;;0.30;;
32333;SDS011;18810;53.040;8.850;2024-03-02T07:41:09;0.20;;;0.20;;
32333;SDS011;18810;53.040;8.850;2024-03-02T07:43:36;0.20;;;0.20;;
32333;SDS011;18810;53.040;8.850;2024-03-02T07:46:02;0.20;;;0.20;;
32333;SDS011;18810;53.040;8.850;2024-03-02T07:48:28;0.30;;;0.30;;
32333;SDS011;18810;53.040;8.850;2024-03-02T07:50:54;0.20;;;0.20;;
32333;SDS011;18810;53.040;8.850;2024-03-02T07:53:20;0.20;;;0.20;;
32333;SDS011;18810;53.040;8.850;2024-03-02T07:55:45;0.20;;;0.20;;
32333;SDS011;18810;53.040;8.850;2024-03-02T07:58:11;0.20;;;0.20;;
32333;SDS011;18810;53.040;8.850;2024-03-02T08:00:41;0.20;;;0.20;;
32333;SDS011;18810;53.040;8.850;2024-03-02T08:03:07;0.20;;;0.20;;
32333;SDS011;18810;53.040;8.850;2024-03-02T08:05:36;0.20;;;0.20;;
32333;SDS011;18810;53.040;8.850;2024-03-02T08:08:02;0.20;;;0.20;;
32333;SDS011;18810;53.040;8.850;2024-03-02T08:10:29;0.20;;;0.20;;
32333;SDS011;18810;53.040;8.850;2024-03-02T08:12:55;0.20;;;0.20;;
32333;SDS011;18810;53.040;8.850;2024-03-02T08:15:21;0.30;;;0.30;;
32333;SDS011;18810;53.040;8.850;2024-03-02T08:17:47;0.30;;;0.30;;
32333;SDS011;18810;53.040;8.850;2024-03-02T08:20:14;0.20;;;0.20;;
32333;SDS011;18810;53.040;8.850;2024-03-02T08:22:40;0.20;;;0.20;;
32333;SDS011;18810;53.040;8.850;2024-03-02T08:25:06;0.20;;;0.20;;
32333;SDS011;18810;53.040;8.850;2024-03-02T08:27:33;0.30;;;0.30;;
32333;SDS011;18810;53.040;8.850;2024-03-02T08:29:59;0.20;;;0.20;;
32333;SDS011;18810;53.040;8.850;2024-03-02T08:32:25;0.20;;;0.20;;
32333;SDS011;18810;53.040;8.850;2024-03-02T08:34:51;0.20;;;0.20;;
32333;SDS011;18810;53.040;8.850;2024-03-02T08:37:16;0.20;;;0.20;;
32333;SDS011;18810;53.040;8.850;2024-03-02T08:39:42;0.30;;;0.30;;
32333;SDS011;18810;53.040;8.850;2024-03-02T08:42:09;0.20;;;0.20;;
32333;SDS011;18810;53.040;8.850;2024-03-02T08:44:35;0.20;;;0.20;;
32333;SDS011;18810;53.040;8.850;2024-03-02T08:47:01;0.30;;;0.30;;
32333;SDS011;18810;53.040;8.850;2024-03-02T08:49:26;0.22;;;0.22;;
32333;SDS011;18810;53.040;8.850;2024-03-02T08:51:52;0.30;;;0.30;;
32333;SDS011;18810;53.040;8.850;2024-03-02T08:54:21;0.20;;;0.20;;
32333;SDS011;18810;53.040;8.850;2024-03-02T08:56:48;0.20;;;0.20;;
32333;SDS011;18810;53.040;8.850;2024-03-02T08:59:14;0.20;;;0.20;;
32333;SDS011;18810;53.040;8.850;2024-03-02T09:01:40;0.20;;;0.20;;
32333;SDS011;18810;53.040;8.850;2024-03-02T09:04:06;0.20;;;0.20;;
32333;SDS011;18810;53.040;8.850;2024-03-02T09:06:33;0.20;;;0.20;;
32333;SDS011;18810;53.040;8.850;2024-03-02T09:08:59;0.20;;;0.20;;
32333;SDS011;18810;53.040;8.850;2024-03-02T09:11:26;0.20;;;0.20;;
32333;SDS011;18810;53.040;8.850;2024-03-02T09:13:51;0.20;;;0.20;;
32333;SDS011;18810;53.040;8.850;2024-03-02T09:16:18;0.20;;;0.20;;
32333;SDS011;18810;53.040;8.850;2024-03-02T09:18:44;0.20;;;0.20;;
32333;SDS011;18810;53.040;8.850;2024-03-02T09:21:10;0.20;;;0.20;;
32333;SDS011;18810;53.040;8.850;2024-03-02T09:23:36;0.20;;;0.20;;
32333;SDS011;18810;53.040;8.850;2024-03-02T09:26:01;0.20;;;0.20;;
32333;SDS011;18810;53.040;8.850;2024-03-02T09:28:28;0.20;;;0.20;;
32333;SDS011;18810;53.040;8.850;2024-03-02T09:30:54;0.20;;;0.20;;
32333;SDS011;18810;53.040;8.850;2024-03-02T09:33:20;0.20;;;0.20;;
32333;SDS011;18810;53.040;8.850;2024-03-02T09:35:45;0.20;;;0.20;;
32333;SDS011;18810;53.040;8.850;2024-03-02T09:38:13;0.25;;;0.25;;
32333;SDS011;18810;53.040;8.850;2024-03-02T09:40:40;0.20;;;0.20;;
32333;SDS011;18810;53.040;8.850;2024-03-02T09:43:07;0.20;;;0.20;;
32333;SDS011;18810;53.040;8.850;2024-03-02T09:45:32;0.20;;;0.20;;
32333;SDS011;18810;53.040;8.850;2024-03-02T09:47:59;0.20;;;0.20;;
32333;SDS011;18810;53.040;8.850;2024-03-02T09:50:25;0.20;;;0.20;;
32333;SDS011;18810;53.040;8.850;2024-03-02T09:52:51;0.20;;;0.20;;
32333;SDS011;18810;53.040;8.850;2024-03-02T09:55:18;0.20;;;0.20;;
32333;SDS011;18810;53.040;8.850;2024-03-02T09:57:47;0.20;;;0.20;;
32333;SDS011;18810;53.040;8.850;2024-03-02T10:00:16;0.20;;;0.20;;
32333;SDS011;18810;53.040;8.850;2024-03-02T10:02:42;0.20;;;0.20;;
32333;SDS011;18810;53.040;8.850;2024-03-02T10:05:08;0.20;;;0.20;;
32333;SDS011;18810;53.040;8.850;2024-03-02T10:07:34;0.20;;;0.20;;
32333;SDS011;18810;53.040;8.850;2024-03-02T10:10:12;0.20;;;0.20;;
32333;SDS011;18810;53.040;8.850;2024-03-02T10:12:39;0.20;;;0.20;;
32333;SDS011;18810;53.040;8.850;2024-03-02T10:15:05;0.20;;;0.20;;
32333;SDS011;18810;53.040;8.850;2024-03-02T10:17:31;0.20;;;0.20;;
32333;SDS011;18810;53.040;8.850;2024-03-02T10:19:57;0.20;;;0.20;;
32333;SDS011;18810;53.040;8.850;2024-03-02T10:22:23;0.20;;;0.20;;
32333;SDS011;18810;53.040;8.850;2024-03-02T10:24:49;0.20;;;0.20;;
32333;SDS011;18810;53.040;8.850;2024-03-02T10:29:41;0.20;;;0.20;;
32333;SDS011;18810;53.040;8.850;2024-03-02T10:32:10;0.20;;;0.20;;
32333;SDS011;18810;53.040;8.850;2024-03-02T10:34:36;0.20;;;0.20;;
32333;SDS011;18810;53.040;8.850;2024-03-02T10:37:05;0.20;;;0.20;;
32333;SDS011;18810;53.040;8.850;2024-03-02T10:39:32;0.20;;;0.20;;
32333;SDS011;18810;53.040;8.850;2024-03-02T10:42:00;0.20;;;0.20;;
32333;SDS011;18810;53.040;8.850;2024-03-02T10:44:28;0.20;;;0.20;;
32333;SDS011;18810;53.040;8.850;2024-03-02T10:46:55;0.20;;;0.20;;
32333;SDS011;18810;53.040;8.850;2024-03-02T10:49:22;0.20;;;0.20;;
32333;SDS011;18810;53.040;8.850;2024-03-02T10:51:49;0.20;;;0.20;;
32333;SDS011;18810;53.040;8.850;2024-03-02T10:54:15;0.20;;;0.20;;
32333;SDS011;18810;53.040;8.850;2024-03-02T10:56:43;0.20;;;0.20;;
32333;SDS011;18810;53.040;8.850;2024-03-02T10:59:21;0.20;;;0.20;;
32333;SDS011;18810;53.040;8.850;2024-03-02T11:02:00;0.20;;;0.20;;
32333;SDS011;18810;53.040;8.850;2024-03-02T11:04:28;0.20;;;0.20;;
32333;SDS011;18810;53.040;8.850;2024-03-02T11:06:56;0.20;;;0.20;;
32333;SDS011;18810;53.040;8.850;2024-03-02T11:09:29;0.20;;;0.20;;
32333;SDS011;18810;53.040;8.850;2024-03-02T11:12:02;0.20;;;0.20;;
32333;SDS011;18810;53.040;8.850;2024-03-02T11:14:44;0.20;;;0.20;;
32333;SDS011;18810;53.040;8.850;2024-03-02T11:17:10;0.20;;;0.20;;
32333;SDS011;18810;53.040;8.850;2024-03-02T11:19:40;0.20;;;0.20;;
32333;SDS011;18810;53.040;8.850;2024-03-02T11:22:07;0.20;;;0.20;;
32333;SDS011;18810;53.040;8.850;2024-03-02T11:24:33;0.20;;;0.20;;
32333;SDS011;18810;53.040;8.850;2024-03-02T11:27:00;0.20;;;0.20;;
32333;SDS011;18810;53.040;8.850;2024-03-02T11:34:50;0.20;;;0.20;;
32333;SDS011;18810;53.040;8.850;2024-03-02T11:37:17;0.20;;;0.20;;
32333;SDS011;18810;53.040;8.850;2024-03-02T11:39:45;0.10;;;0.10;;
32333;SDS011;18810;53.040;8.850;2024-03-02T11:42:12;0.20;;;0.20;;
32333;SDS011;18810;53.040;8.850;2024-03-02T11:44:39;0.20;;;0.20;;
32333;SDS011;18810;53.040;8.850;2024-03-02T11:47:14;0.20;;;0.20;;
32333;SDS011;18810;53.040;8.850;2024-03-02T11:49:45;0.20;;;0.20;;
32333;SDS011;18810;53.040;8.850;2024-03-02T11:52:13;0.20;;;0.20;;
32333;SDS011;18810;53.040;8.850;2024-03-02T11:54:46;0.20;;;0.20;;
32333;SDS011;18810;53.040;8.850;2024-03-02T11:57:17;0.20;;;0.20;;
32333;SDS011;18810;53.040;8.850;2024-03-02T11:59:44;0.20;;;0.20;;
32333;SDS011;18810;53.040;8.850;2024-03-02T12:02:19;0.20;;;0.20;;
32333;SDS011;18810;53.040;8.850;2024-03-02T12:04:47;0.20;;;0.20;;
32333;SDS011;18810;53.040;8.850;2024-03-02T12:07:20;0.20;;;0.20;;
32333;SDS011;18810;53.040;8.850;2024-03-02T12:09:47;0.10;;;0.10;;
32333;SDS011;18810;53.040;8.850;2024-03-02T12:12:13;0.20;;;0.20;;
32333;SDS011;18810;53.040;8.850;2024-03-02T12:14:49;0.20;;;0.20;;
32333;SDS011;18810;53.040;8.850;2024-03-02T12:17:16;0.20;;;0.20;;
32333;SDS011;18810;53.040;8.850;2024-03-02T12:19:42;0.20;;;0.20;;
32333;SDS011;18810;53.040;8.850;2024-03-02T12:22:08;0.10;;;0.10;;
32333;SDS011;18810;53.040;8.850;2024-03-02T12:24:33;0.10;;;0.10;;
32333;SDS011;18810;53.040;8.850;2024-03-02T12:26:59;0.20;;;0.20;;
32333;SDS011;18810;53.040;8.850;2024-03-02T12:29:25;0.10;;;0.10;;
32333;SDS011;18810;53.040;8.850;2024-03-02T12:31:52;0.10;;;0.10;;
32333;SDS011;18810;53.040;8.850;2024-03-02T12:34:18;0.10;;;0.10;;
32333;SDS011;18810;53.040;8.850;2024-03-02T12:36:45;0.10;;;0.10;;
32333;SDS011;18810;53.040;8.850;2024-03-02T12:39:14;0.10;;;0.10;;
32333;SDS011;18810;53.040;8.850;2024-03-02T12:41:48;0.10;;;0.10;;
32333;SDS011;18810;53.040;8.850;2024-03-02T12:44:15;0.10;;;0.10;;
32333;SDS011;18810;53.040;8.850;2024-03-02T12:46:42;0.10;;;0.10;;
32333;SDS011;18810;53.040;8.850;2024-03-02T12:49:08;0.20;;;0.20;;
32333;SDS011;18810;53.040;8.850;2024-03-02T12:51:39;0.20;;;0.20;;
32333;SDS011;18810;53.040;8.850;2024-03-02T12:54:09;0.20;;;0.20;;
32333;SDS011;18810;53.040;8.850;2024-03-02T12:56:36;0.20;;;0.20;;
32333;SDS011;18810;53.040;8.850;2024-03-02T12:59:02;0.20;;;0.20;;
32333;SDS011;18810;53.040;8.850;2024-03-02T13:01:28;0.10;;;0.10;;
32333;SDS011;18810;53.040;8.850;2024-03-02T13:03:55;0.20;;;0.20;;
32333;SDS011;18810;53.040;8.850;2024-03-02T13:06:22;0.20;;;0.20;;
32333;SDS011;18810;53.040;8.850;2024-03-02T13:08:48;0.20;;;0.20;;
32333;SDS011;18810;53.040;8.850;2024-03-02T13:11:15;0.20;;;0.20;;
32333;SDS011;18810;53.040;8.850;2024-03-02T13:13:41;0.20;;;0.20;;
32333;SDS011;18810;53.040;8.850;2024-03-02T13:16:10;0.20;;;0.20;;
32333;SDS011;18810;53.040;8.850;2024-03-02T13:18:40;0.20;;;0.20;;
32333;SDS011;18810;53.040;8.850;2024-03-02T13:21:07;0.20;;;0.20;;
32333;SDS011;18810;53.040;8.850;2024-03-02T13:23:33;0.10;;;0.10;;
32333;SDS011;18810;53.040;8.850;2024-03-02T13:25:59;0.20;;;0.20;;
32333;SDS011;18810;53.040;8.850;2024-03-02T13:28:25;0.20;;;0.20;;
32333;SDS011;18810;53.040;8.850;2024-03-02T13:30:51;0.20;;;0.20;;
32333;SDS011;18810;53.040;8.850;2024-03-02T13:33:17;0.20;;;0.20;;
32333;SDS011;18810;53.040;8.850;2024-03-02T13:35:47;0.20;;;0.20;;
32333;SDS011;18810;53.040;8.850;2024-03-02T13:38:15;0.10;;;0.10;;
32333;SDS011;18810;53.040;8.850;2024-03-02T13:40:44;0.20;;;0.20;;
32333;SDS011;18810;53.040;8.850;2024-03-02T13:43:10;0.10;;;0.10;;
32333;SDS011;18810;53.040;8.850;2024-03-02T13:45:37;0.20;;;0.20;;
32333;SDS011;18810;53.040;8.850;2024-03-02T13:48:03;0.20;;;0.20;;
32333;SDS011;18810;53.040;8.850;2024-03-02T13:50:29;0.10;;;0.10;;
32333;SDS011;18810;53.040;8.850;2024-03-02T13:52:55;0.20;;;0.20;;
32333;SDS011;18810;53.040;8.850;2024-03-02T13:55:21;0.20;;;0.20;;
32333;SDS011;18810;53.040;8.850;2024-03-02T13:57:47;0.10;;;0.10;;
32333;SDS011;18810;53.040;8.850;2024-03-02T14:00:15;0.20;;;0.20;;
32333;SDS011;18810;53.040;8.850;2024-03-02T14:02:42;0.10;;;0.10;;
32333;SDS011;18810;53.040;8.850;2024-03-02T14:05:08;0.13;;;0.13;;
32333;SDS011;18810;53.040;8.850;2024-03-02T14:07:38;0.20;;;0.20;;
32333;SDS011;18810;53.040;8.850;2024-03-02T14:10:05;0.20;;;0.20;;
32333;SDS011;18810;53.040;8.850;2024-03-02T14:12:31;0.20;;;0.20;;
32333;SDS011;18810;53.040;8.850;2024-03-02T14:14:57;0.20;;;0.20;;
32333;SDS011;18810;53.040;8.850;2024-03-02T14:17:24;0.20;;;0.20;;
32333;SDS011;18810;53.040;8.850;2024-03-02T14:19:50;0.20;;;0.20;;
32333;SDS011;18810;53.040;8.850;2024-03-02T14:22:17;0.20;;;0.20;;
32333;SDS011;18810;53.040;8.850;2024-03-02T14:24:43;0.20;;;0.20;;
32333;SDS011;18810;53.040;8.850;2024-03-02T14:27:09;0.17;;;0.17;;
32333;SDS011;18810;53.040;8.850;2024-03-02T14:29:34;0.20;;;0.20;;
32333;SDS011;18810;53.040;8.850;2024-03-02T14:32:02;0.10;;;0.10;;
32333;SDS011;18810;53.040;8.850;2024-03-02T14:34:29;0.20;;;0.20;;
32333;SDS011;18810;53.040;8.850;2024-03-02T14:36:55;0.20;;;0.20;;
32333;SDS011;18810;53.040;8.850;2024-03-02T14:39:20;0.20;;;0.20;;
32333;SDS011;18810;53.040;8.850;2024-03-02T14:41:47;0.20;;;0.20;;
32333;SDS011;18810;53.040;8.850;2024-03-02T14:44:13;0.20;;;0.20;;
32333;SDS011;18810;53.040;8.850;2024-03-02T14:46:40;0.20;;;0.20;;
32333;SDS011;18810;53.040;8.850;2024-03-02T14:49:06;0.20;;;0.20;;
32333;SDS011;18810;53.040;8.850;2024-03-02T14:51:32;0.20;;;0.20;;
32333;SDS011;18810;53.040;8.850;2024-03-02T14:53:58;0.20;;;0.20;;
32333;SDS011;18810;53.040;8.850;2024-03-02T14:56:24;0.20;;;0.20;;
32333;SDS011;18810;53.040;8.850;2024-03-02T14:58:50;0.20;;;0.20;;